Time;durP1;ratioP1;P1;durP2;ratioP2;P2;SDS_P1;SDS_P2;PMS_P1;PMS_P2;Temp;Humidity;BMP_temperature;BMP_pressure;BME280_temperature;BME280_humidity;BME280_pressure;Samples;Min_cycle;Max_cycle;Signal;HPM_P1;HPM_P2
2022/12/24 00:02:12;;;;;;;11.38;9.75;;;7.90;99.90;;;;;;5072721;28;20040;-68
2022/12/24 00:04:37;;;;;;;13.05;11.10;;;8.00;99.90;;;;;;5072701;28;20051;-68
2022/12/24 00:07:03;;;;;;;13.93;11.60;;;8.00;99.90;;;;;;5072600;28;20044;-68
2022/12/24 00:09:28;;;;;;;18.98;12.63;;;8.00;99.90;;;;;;5072617;28;20044;-68
2022/12/24 00:11:54;;;;;;;12.70;11.00;;;8.00;99.90;;;;;;5072482;28;20032;-69
2022/12/24 00:14:20;;;;;;;16.15;12.75;;;8.00;99.90;;;;;;5072500;28;20556;-69
2022/12/24 00:16:45;;;;;;;16.42;12.13;;;8.00;99.90;;;;;;5072426;28;20382;-69
2022/12/24 00:19:11;;;;;;;16.75;11.95;;;8.00;99.90;;;;;;5072482;28;20037;-69
2022/12/24 00:21:37;;;;;;;13.25;11.70;;;8.00;99.90;;;;;;5072661;28;20051;-69
2022/12/24 00:24:04;;;;;;;14.15;11.50;;;8.00;99.90;;;;;;5072347;28;20044;-69
2022/12/24 00:26:33;;;;;;;13.27;11.38;;;7.90;99.90;;;;;;5072179;28;20397;-69
2022/12/24 00:28:58;;;;;;;15.32;11.80;;;8.00;99.90;;;;;;5072280;28;20047;-69
2022/12/24 00:31:24;;;;;;;17.88;12.65;;;8.00;99.90;;;;;;5072166;28;20053;-69
2022/12/24 00:33:50;;;;;;;16.83;12.15;;;8.00;99.90;;;;;;5074016;28;20036;-69
2022/12/24 00:36:18;;;;;;;19.23;14.10;;;8.00;99.90;;;;;;5072096;28;20481;-69
2022/12/24 00:38:44;;;;;;;15.90;12.48;;;8.00;99.90;;;;;;5072114;28;20048;-69
2022/12/24 00:41:27;;;;;;;16.70;12.75;;;8.00;99.90;;;;;;5072074;28;20497;-69
2022/12/24 00:43:53;;;;;;;;;;;8.00;99.90;;;;;;5072557;28;20052;-69
2022/12/24 00:46:19;;;;;;;20.08;12.82;;;7.90;99.90;;;;;;5071948;28;19939;-69
2022/12/24 00:48:44;;;;;;;15.30;11.55;;;7.90;99.90;;;;;;5072137;28;20130;-69
2022/12/24 00:51:10;;;;;;;16.40;11.77;;;7.90;99.90;;;;;;5071883;28;20506;-69
2022/12/24 00:53:35;;;;;;;25.75;14.48;;;7.90;99.90;;;;;;5072182;28;20045;-69
2022/12/24 00:56:01;;;;;;;19.52;13.13;;;8.00;99.90;;;;;;5072964;28;20068;-69
2022/12/24 00:58:27;;;;;;;17.60;13.15;;;8.00;99.90;;;;;;5071871;28;20051;-69
2022/12/24 01:00:52;;;;;;;15.68;12.90;;;8.00;99.90;;;;;;5071840;28;20040;-69
2022/12/24 01:03:18;;;;;;;17.67;13.55;;;8.00;99.90;;;;;;5071811;28;20067;-69
2022/12/24 01:05:43;;;;;;;20.95;13.07;;;8.00;99.90;;;;;;5071966;28;20135;-69
2022/12/24 01:08:09;;;;;;;21.95;14.10;;;8.00;99.90;;;;;;5071823;28;20041;-69
2022/12/24 01:10:34;;;;;;;15.57;12.70;;;8.00;99.90;;;;;;5071674;28;20093;-69
2022/12/24 01:13:01;;;;;;;19.33;12.98;;;8.00;99.90;;;;;;5071333;28;20089;-69
2022/12/24 01:15:28;;;;;;;20.77;13.98;;;8.00;99.90;;;;;;5071754;28;20086;-69
2022/12/24 01:17:53;;;;;;;26.33;15.05;;;8.00;99.90;;;;;;5071708;28;20045;-69
2022/12/24 01:20:19;;;;;;;17.58;13.38;;;7.90;99.90;;;;;;5071691;28;20040;-69
2022/12/24 01:22:45;;;;;;;16.80;13.15;;;7.90;99.90;;;;;;5071895;28;20036;-69
2022/12/24 01:25:11;;;;;;;19.40;14.90;;;8.00;99.90;;;;;;5054836;28;20405;-69
2022/12/24 01:27:37;;;;;;;25.40;17.30;;;8.00;99.90;;;;;;5071846;28;20137;-69
2022/12/24 01:30:05;;;;;;;31.80;19.52;;;8.00;99.90;;;;;;5071486;28;20409;-69
2022/12/24 01:32:31;;;;;;;29.90;18.77;;;8.00;99.90;;;;;;5071481;28;20037;-69
2022/12/24 01:34:56;;;;;;;26.08;17.58;;;8.00;99.90;;;;;;5071763;28;20043;-69
2022/12/24 01:37:22;;;;;;;36.00;20.15;;;8.00;99.90;;;;;;5071449;28;20044;-69
2022/12/24 01:39:48;;;;;;;48.38;23.38;;;8.00;99.90;;;;;;5071489;28;20463;-69
2022/12/24 01:45:39;;;;;;;32.53;18.93;;;8.10;99.90;;;;;;5071431;28;20075;-69
2022/12/24 01:48:11;;;;;;;28.38;18.60;;;8.10;99.90;;;;;;5071393;28;20045;-69
2022/12/24 01:50:36;;;;;;;26.77;17.40;;;8.10;99.90;;;;;;5071427;28;20063;-69
2022/12/24 01:53:04;;;;;;;34.78;19.42;;;8.10;99.90;;;;;;5071445;28;20504;-68
2022/12/24 01:55:30;;;;;;;29.10;17.42;;;8.20;99.90;;;;;;5071614;28;20045;-69
2022/12/24 01:57:59;;;;;;;28.15;18.48;;;8.20;99.90;;;;;;5071554;28;20508;-69
2022/12/24 02:00:24;;;;;;;20.75;15.15;;;8.20;99.90;;;;;;5071295;28;20044;-68
2022/12/24 02:02:52;;;;;;;25.42;17.20;;;8.30;99.90;;;;;;5071507;28;20036;-69
2022/12/24 02:05:32;;;;;;;24.17;15.18;;;8.30;99.90;;;;;;5071188;28;20048;-69
2022/12/24 02:08:01;;;;;;;22.15;15.90;;;8.40;99.90;;;;;;5071479;28;20405;-69
2022/12/24 02:10:26;;;;;;;20.98;14.55;;;8.40;99.90;;;;;;5071327;28;20378;-68
2022/12/24 02:12:53;;;;;;;26.50;14.45;;;8.40;99.90;;;;;;5071415;28;20094;-69
2022/12/24 02:15:20;;;;;;;20.20;13.82;;;8.40;99.90;;;;;;5071058;28;20098;-69
2022/12/24 02:18:34;;;;;;;19.45;12.95;;;8.40;99.90;;;;;;5071367;28;20094;-69
2022/12/24 02:21:24;;;;;;;18.40;12.30;;;8.50;99.90;;;;;;5058143;28;20052;-69
2022/12/24 02:24:20;;;;;;;17.35;11.32;;;8.50;99.90;;;;;;5071089;28;20521;-69
2022/12/24 02:27:08;;;;;;;15.30;10.25;;;8.50;99.90;;;;;;5073391;28;20404;-69
2022/12/24 02:30:00;;;;;;;20.35;11.07;;;8.50;99.90;;;;;;5074844;28;20043;-69
2022/12/24 02:32:44;;;;;;;18.05;10.52;;;8.60;99.90;;;;;;5074536;28;20088;-69
2022/12/24 02:35:13;;;;;;;17.85;10.60;;;8.50;99.90;;;;;;5074685;28;20071;-68
2022/12/24 02:37:46;;;;;;;12.25;8.25;;;8.50;99.90;;;;;;5074414;28;20051;-68
2022/12/24 02:40:17;;;;;;;15.45;9.27;;;8.60;99.90;;;;;;5074713;28;20051;-68
2022/12/24 02:42:48;;;;;;;11.95;7.65;;;8.60;99.90;;;;;;5074647;28;20142;-68
2022/12/24 02:45:19;;;;;;;14.20;7.70;;;8.60;99.90;;;;;;5074266;28;20060;-68
2022/12/24 02:47:46;;;;;;;14.45;7.55;;;8.60;99.90;;;;;;5074104;28;20044;-68
2022/12/24 02:50:14;;;;;;;13.48;6.88;;;8.60;99.90;;;;;;5074386;28;20059;-68
2022/12/24 02:52:43;;;;;;;14.32;7.47;;;8.60;99.90;;;;;;5074387;28;20495;-68
2022/12/24 02:55:27;;;;;;;17.02;6.68;;;8.60;99.90;;;;;;5074281;28;20371;-69
2022/12/24 02:58:38;;;;;;;20.90;7.28;;;8.60;99.90;;;;;;5075909;28;20040;-68
2022/12/24 03:01:39;;;;;;;22.60;6.40;;;8.70;99.90;;;;;;5074330;28;20119;-68
2022/12/24 03:04:14;;;;;;;24.13;6.05;;;8.70;99.90;;;;;;5074026;28;20417;-68
2022/12/24 03:07:10;;;;;;;30.02;6.88;;;8.70;99.90;;;;;;5073894;28;20417;-68
2022/12/24 03:09:41;;;;;;;35.78;6.30;;;8.80;99.90;;;;;;5073920;28;20048;-68
2022/12/24 03:12:14;;;;;;;28.10;5.88;;;8.70;99.90;;;;;;5073790;28;20079;-69
2022/12/24 03:14:41;;;;;;;31.65;5.53;;;8.70;99.90;;;;;;5073859;28;20433;-69
2022/12/24 03:17:07;;;;;;;29.15;5.10;;;8.70;99.90;;;;;;5073922;28;20136;-68
2022/12/24 03:19:34;;;;;;;34.75;5.20;;;8.70;99.90;;;;;;5073960;28;20090;-68
2022/12/24 03:22:02;;;;;;;28.30;4.88;;;8.70;99.90;;;;;;5073931;28;20072;-68
2022/12/24 03:24:28;;;;;;;33.45;5.60;;;8.70;99.90;;;;;;5073826;28;20076;-68
2022/12/24 03:26:54;;;;;;;32.25;5.35;;;8.70;99.90;;;;;;5073428;28;20076;-68
2022/12/24 03:29:20;;;;;;;36.58;5.57;;;8.70;99.90;;;;;;5073511;28;20083;-68
2022/12/24 03:31:51;;;;;;;33.30;5.75;;;8.70;99.90;;;;;;5073352;28;20072;-68
2022/12/24 03:34:18;;;;;;;37.70;5.22;;;8.70;99.90;;;;;;5073639;28;20573;-69
2022/12/24 03:36:44;;;;;;;31.80;5.18;;;8.70;99.90;;;;;;5074335;28;20039;-69
2022/12/24 03:39:10;;;;;;;35.35;5.95;;;8.70;99.90;;;;;;5073266;28;20115;-68
2022/12/24 03:41:36;;;;;;;34.13;6.20;;;8.80;99.90;;;;;;5074428;28;20044;-69
2022/12/24 03:44:02;;;;;;;36.05;5.65;;;8.80;99.90;;;;;;5073209;28;20049;-69
2022/12/24 03:46:28;;;;;;;29.45;5.28;;;8.80;99.90;;;;;;5073032;28;20055;-69
2022/12/24 03:48:54;;;;;;;38.05;5.35;;;8.80;99.90;;;;;;5072961;28;20052;-68
2022/12/24 03:51:22;;;;;;;37.90;6.13;;;8.70;99.90;;;;;;5072889;28;20044;-68
2022/12/24 03:53:48;;;;;;;28.98;5.43;;;8.80;99.90;;;;;;5072885;28;20405;-69
2022/12/24 03:56:14;;;;;;;35.67;6.22;;;8.80;99.90;;;;;;5072873;28;20072;-69
2022/12/24 03:58:39;;;;;;;33.65;5.82;;;8.80;99.90;;;;;;5072899;28;20068;-68
2022/12/24 04:01:05;;;;;;;32.20;5.75;;;8.80;99.90;;;;;;5072805;28;20040;-68
2022/12/24 04:03:31;;;;;;;38.28;6.13;;;8.80;99.90;;;;;;5072771;28;20043;-68
2022/12/24 04:06:07;;;;;;;34.95;6.00;;;8.80;99.90;;;;;;5072644;28;20037;-68
2022/12/24 04:08:34;;;;;;;31.30;5.45;;;8.90;99.90;;;;;;5056076;28;20044;-68
2022/12/24 04:10:59;;;;;;;42.65;5.93;;;8.80;99.90;;;;;;5072520;28;20037;-68
2022/12/24 04:13:25;;;;;;;34.55;6.15;;;8.80;99.90;;;;;;5072577;28;20089;-68
2022/12/24 04:16:06;;;;;;;31.80;5.25;;;8.80;99.90;;;;;;5072730;28;20119;-69
2022/12/24 04:18:32;;;;;;;38.50;6.20;;;8.80;99.90;;;;;;5072705;28;20043;-68
2022/12/24 04:20:58;;;;;;;33.60;6.43;;;8.70;99.90;;;;;;5072702;28;20090;-68
2022/12/24 04:23:24;;;;;;;33.88;5.97;;;8.80;99.90;;;;;;5072350;28;20119;-69
2022/12/24 04:25:50;;;;;;;40.08;5.22;;;8.70;99.90;;;;;;5072290;28;20048;-69
2022/12/24 04:28:16;;;;;;;35.78;4.93;;;8.70;99.90;;;;;;5072274;28;20047;-69
2022/12/24 04:30:42;;;;;;;28.70;4.63;;;8.80;99.90;;;;;;5072396;28;20068;-68
2022/12/24 04:33:09;;;;;;;34.45;6.20;;;8.80;99.90;;;;;;5072226;28;20490;-71
2022/12/24 04:35:39;;;;;;;37.88;5.75;;;8.80;99.90;;;;;;5072377;28;20059;-71
2022/12/24 04:38:05;;;;;;;43.55;6.78;;;8.70;99.90;;;;;;5072204;28;20040;-71
2022/12/24 04:40:30;;;;;;;46.10;5.95;;;8.70;99.90;;;;;;5073364;28;20101;-72
2022/12/24 04:42:56;;;;;;;39.47;5.70;;;8.70;99.90;;;;;;5072361;28;20036;-71
2022/12/24 04:45:21;;;;;;;35.88;6.38;;;8.70;99.90;;;;;;5071990;28;20398;-71
2022/12/24 04:47:47;;;;;;;38.78;6.07;;;8.70;99.90;;;;;;5054866;28;20045;-72
2022/12/24 04:50:12;;;;;;;37.08;6.70;;;8.70;99.90;;;;;;5071655;28;20076;-72
2022/12/24 04:52:38;;;;;;;36.70;6.68;;;8.70;99.90;;;;;;5071982;28;20044;-72
2022/12/24 04:55:04;;;;;;;44.15;6.43;;;8.60;99.90;;;;;;5071867;28;20036;-72
2022/12/24 04:57:34;;;;;;;43.45;7.00;;;8.60;99.90;;;;;;5071908;28;20033;-72
2022/12/24 05:00:01;;;;;;;44.58;7.63;;;8.50;99.90;;;;;;5071881;28;20529;-72
2022/12/24 05:02:26;;;;;;;48.03;6.82;;;8.50;99.90;;;;;;5071829;28;20032;-72
2022/12/24 05:04:52;;;;;;;49.42;6.72;;;8.50;99.90;;;;;;5071823;28;20120;-71
2022/12/24 05:07:17;;;;;;;40.78;7.38;;;8.50;99.90;;;;;;5071721;28;20064;-72
2022/12/24 05:09:43;;;;;;;53.80;7.32;;;8.40;99.90;;;;;;5072072;28;20047;-72
2022/12/24 05:12:09;;;;;;;40.47;6.75;;;8.40;99.90;;;;;;5071714;28;20098;-71
2022/12/24 05:14:34;;;;;;;47.78;7.25;;;8.40;99.90;;;;;;5071741;28;20036;-71
2022/12/24 05:17:00;;;;;;;51.35;7.22;;;8.40;99.90;;;;;;5071635;28;20085;-71
2022/12/24 05:19:25;;;;;;;50.25;7.13;;;8.40;99.90;;;;;;5071696;28;20048;-72
2022/12/24 05:27:20;;;;;;;52.53;7.38;;;8.30;99.90;;;;;;5071627;28;20040;-71
2022/12/24 05:29:45;;;;;;;47.42;7.03;;;8.30;99.90;;;;;;5071820;28;20040;-72
2022/12/24 05:32:11;;;;;;;48.65;6.72;;;8.30;99.90;;;;;;5071509;28;20047;-72
2022/12/24 05:34:36;;;;;;;51.25;7.72;;;8.30;99.90;;;;;;5071806;28;20032;-72
2022/12/24 05:37:02;;;;;;;48.42;7.30;;;8.30;99.90;;;;;;5071730;28;20437;-71
2022/12/24 05:39:28;;;;;;;42.25;6.65;;;8.30;99.90;;;;;;5071789;28;20040;-72
2022/12/24 05:41:53;;;;;;;46.10;7.15;;;8.30;99.90;;;;;;5071550;28;20455;-72
2022/12/24 05:44:19;;;;;;;51.38;8.23;;;8.40;99.90;;;;;;5071494;28;20040;-72
2022/12/24 05:46:44;;;;;;;47.47;7.82;;;8.40;99.90;;;;;;5071399;28;20123;-71
2022/12/24 05:49:10;;;;;;;48.75;7.78;;;8.40;99.90;;;;;;5072635;28;20048;-72
2022/12/24 05:51:36;;;;;;;53.03;7.82;;;8.40;99.90;;;;;;5071402;28;20040;-72
2022/12/24 05:54:01;;;;;;;50.67;7.32;;;8.40;99.90;;;;;;5071359;28;20449;-71
2022/12/24 05:56:27;;;;;;;44.67;7.13;;;8.40;99.90;;;;;;5071282;28;20124;-71
2022/12/24 05:58:53;;;;;;;52.63;7.30;;;8.40;99.90;;;;;;5071597;28;20123;-71
2022/12/24 06:01:20;;;;;;;50.95;7.35;;;8.40;99.90;;;;;;5075025;28;20083;-72
2022/12/24 06:03:48;;;;;;;44.40;7.00;;;8.40;99.90;;;;;;5074980;28;20055;-72
2022/12/24 06:06:19;;;;;;;54.03;8.32;;;8.40;99.90;;;;;;5075264;28;20049;-71
2022/12/24 06:08:46;;;;;;;49.80;8.20;;;8.50;99.90;;;;;;5074996;28;20468;-71
2022/12/24 06:11:13;;;;;;;44.10;6.90;;;8.50;99.90;;;;;;5074861;28;20048;-72
2022/12/24 06:13:40;;;;;;;53.75;8.40;;;8.50;99.90;;;;;;5074864;28;20455;-72
2022/12/24 06:16:07;;;;;;;52.15;8.00;;;8.50;99.90;;;;;;5075019;28;20576;-71
2022/12/24 06:18:34;;;;;;;56.38;8.57;;;8.50;99.90;;;;;;5074812;28;20401;-71
2022/12/24 06:21:01;;;;;;;53.97;8.32;;;8.50;99.90;;;;;;5074774;28;20072;-71
2022/12/24 06:23:29;;;;;;;55.67;8.85;;;8.60;99.90;;;;;;5074680;28;20044;-71
2022/12/24 06:25:57;;;;;;;55.53;8.15;;;8.50;99.90;;;;;;5074568;28;20040;-72
2022/12/24 06:28:23;;;;;;;42.47;7.50;;;8.60;99.90;;;;;;5074660;28;20040;-72
2022/12/24 06:30:49;;;;;;;49.13;8.25;;;8.60;99.90;;;;;;5074692;28;20048;-72
2022/12/24 06:33:16;;;;;;;54.83;8.32;;;8.60;99.90;;;;;;5076037;28;20494;-71
2022/12/24 06:35:44;;;;;;;54.72;8.45;;;8.60;99.90;;;;;;5074432;28;20040;-71
2022/12/24 06:38:10;;;;;;;56.95;8.38;;;8.60;99.90;;;;;;5074714;28;20049;-72
2022/12/24 06:40:38;;;;;;;49.45;7.85;;;8.60;99.90;;;;;;5075927;28;20511;-72
2022/12/24 06:43:03;;;;;;;57.20;7.82;;;8.60;99.90;;;;;;5074575;28;20486;-72
2022/12/24 06:45:29;;;;;;;53.30;8.00;;;8.60;99.90;;;;;;5074516;28;20094;-71
2022/12/24 06:47:55;;;;;;;48.08;7.78;;;8.70;99.90;;;;;;5075415;28;20493;-72
2022/12/24 06:50:20;;;;;;;53.10;7.55;;;8.70;99.90;;;;;;5074207;28;20098;-72
2022/12/24 06:52:46;;;;;;;56.03;9.05;;;8.70;99.90;;;;;;5074195;28;20043;-72
2022/12/24 06:55:11;;;;;;;49.05;8.45;;;8.70;99.90;;;;;;5075623;28;20035;-71
2022/12/24 06:57:37;;;;;;;52.55;9.20;;;8.70;99.90;;;;;;5074059;28;20110;-72
2022/12/24 07:00:03;;;;;;;53.20;8.55;;;8.70;99.90;;;;;;5074295;28;20040;-72
2022/12/24 07:02:29;;;;;;;42.47;7.30;;;8.70;99.90;;;;;;5074015;28;20052;-72
2022/12/24 07:04:54;;;;;;;54.78;8.07;;;8.60;99.90;;;;;;5073948;28;20036;-71
2022/12/24 07:07:20;;;;;;;45.40;7.28;;;8.70;99.90;;;;;;5074108;28;20069;-72
2022/12/24 07:09:45;;;;;;;45.20;8.15;;;8.70;99.90;;;;;;5073895;28;20531;-72
2022/12/24 07:12:11;;;;;;;42.30;7.70;;;8.70;99.90;;;;;;5072946;28;20040;-72
2022/12/24 07:14:36;;;;;;;41.90;6.75;;;8.70;99.90;;;;;;5073783;28;20079;-72
2022/12/24 07:17:02;;;;;;;50.33;7.00;;;8.70;99.90;;;;;;5073924;28;20037;-71
2022/12/24 07:19:27;;;;;;;50.17;7.50;;;8.60;99.90;;;;;;5073718;28;20485;-72
2022/12/24 07:21:53;;;;;;;47.28;7.60;;;8.70;99.90;;;;;;5073704;28;20040;-72
2022/12/24 07:24:19;;;;;;;45.20;7.63;;;8.60;99.90;;;;;;5073643;28;20036;-72
2022/12/24 07:26:44;;;;;;;47.28;6.75;;;8.70;99.90;;;;;;5073515;28;20127;-72
2022/12/24 07:29:10;;;;;;;53.55;7.47;;;8.70;99.90;;;;;;5073466;28;20037;-72
2022/12/24 07:31:35;;;;;;;45.92;7.05;;;8.70;99.90;;;;;;5073517;28;20075;-71
2022/12/24 07:34:01;;;;;;;59.38;9.40;;;8.70;99.90;;;;;;5073431;28;20555;-71
2022/12/24 07:36:27;;;;;;;45.53;7.25;;;8.70;99.90;;;;;;5073335;28;20036;-71
2022/12/24 07:38:53;;;;;;;57.47;7.82;;;8.70;99.90;;;;;;5073302;28;20085;-71
2022/12/24 07:41:19;;;;;;;49.03;7.63;;;8.70;99.90;;;;;;5073317;28;20413;-72
2022/12/24 07:43:45;;;;;;;41.08;6.93;;;8.80;99.90;;;;;;5056562;28;20047;-73
2022/12/24 07:46:11;;;;;;;49.25;7.35;;;8.80;99.90;;;;;;5073139;28;20044;-71
2022/12/24 07:48:37;;;;;;;46.88;8.27;;;8.80;99.90;;;;;;5073083;28;20043;-71
2022/12/24 07:51:03;;;;;;;51.70;6.85;;;8.80;99.90;;;;;;5072995;28;20075;-71
2022/12/24 07:53:29;;;;;;;49.28;7.93;;;8.80;99.90;;;;;;5073342;28;20089;-72
2022/12/24 07:55:55;;;;;;;49.70;7.93;;;8.90;99.90;;;;;;5072930;28;20048;-72
2022/12/24 07:58:21;;;;;;;37.58;6.20;;;8.90;99.90;;;;;;5072954;28;20086;-72
2022/12/24 08:00:46;;;;;;;48.67;7.13;;;8.90;99.90;;;;;;5072898;28;20044;-72
2022/12/24 08:03:19;;;;;;;48.53;6.53;;;8.90;99.90;;;;;;5072872;28;20048;-72
2022/12/24 08:05:46;;;;;;;36.45;5.88;;;8.90;99.90;;;;;;5073009;28;20536;-71
2022/12/24 08:08:12;;;;;;;42.85;6.45;;;8.90;99.90;;;;;;5074170;28;20399;-72
2022/12/24 08:10:39;;;;;;;49.60;6.78;;;9.00;99.90;;;;;;5072782;28;20101;-72
2022/12/24 08:13:05;;;;;;;44.80;6.95;;;9.00;99.90;;;;;;5072737;28;20036;-71
2022/12/24 08:15:31;;;;;;;39.58;6.13;;;8.90;99.90;;;;;;5072581;28;20051;-72
2022/12/24 08:17:57;;;;;;;45.95;7.07;;;8.90;99.90;;;;;;5072588;28;20036;-72
2022/12/24 08:20:22;;;;;;;53.58;7.93;;;8.90;99.90;;;;;;5072600;28;20063;-72
2022/12/24 08:22:48;;;;;;;44.75;7.18;;;9.00;99.90;;;;;;5073922;28;20114;-72
2022/12/24 08:25:13;;;;;;;44.28;6.88;;;9.00;99.90;;;;;;5072675;28;20067;-72
2022/12/24 08:27:40;;;;;;;49.15;8.45;;;9.00;99.90;;;;;;5072791;28;20438;-72
2022/12/24 08:30:06;;;;;;;44.33;7.63;;;9.00;99.90;;;;;;5072434;28;20048;-72
2022/12/24 08:32:32;;;;;;;57.20;7.78;;;9.00;99.90;;;;;;5055790;28;20043;-72
2022/12/24 08:34:58;;;;;;;42.38;7.80;;;9.00;99.90;;;;;;5072336;28;20046;-72
2022/12/24 08:37:23;;;;;;;53.40;8.75;;;9.00;99.90;;;;;;5072151;28;20042;-72
2022/12/24 08:39:49;;;;;;;60.33;8.90;;;9.00;99.90;;;;;;5072415;28;20044;-72
2022/12/24 08:42:14;;;;;;;48.17;8.45;;;9.00;99.90;;;;;;5072140;28;20456;-72
2022/12/24 08:44:40;;;;;;;47.65;7.85;;;9.10;99.90;;;;;;5072049;28;20083;-72
2022/12/24 08:47:06;;;;;;;42.83;8.25;;;9.00;99.90;;;;;;5072246;28;20040;-72
2022/12/24 08:49:31;;;;;;;47.88;7.80;;;9.10;99.90;;;;;;5071833;28;20501;-72
2022/12/24 08:51:57;;;;;;;43.60;8.15;;;9.10;99.90;;;;;;5071939;28;20045;-72
2022/12/24 08:54:24;;;;;;;43.80;6.85;;;9.10;99.90;;;;;;5072734;28;20049;-72
2022/12/24 08:56:50;;;;;;;51.72;8.63;;;9.00;99.90;;;;;;5073160;28;20127;-72
2022/12/24 08:59:15;;;;;;;47.17;7.90;;;9.00;99.90;;;;;;5072172;28;20068;-72
2022/12/24 09:01:41;;;;;;;42.47;8.15;;;9.10;99.90;;;;;;5072211;28;20097;-71
2022/12/24 09:04:06;;;;;;;44.75;7.22;;;9.10;99.90;;;;;;5073437;28;20460;-71
2022/12/24 09:06:32;;;;;;;42.13;7.55;;;9.10;99.90;;;;;;5072014;28;20075;-72
2022/12/24 09:08:58;;;;;;;49.60;7.78;;;9.20;99.90;;;;;;5071883;28;20041;-71
2022/12/24 09:11:24;;;;;;;40.47;7.32;;;9.10;99.90;;;;;;5073276;28;20067;-72
2022/12/24 09:13:49;;;;;;;59.50;8.75;;;9.20;99.90;;;;;;5071837;28;20102;-72
2022/12/24 09:16:15;;;;;;;48.75;7.88;;;9.20;99.90;;;;;;5073231;28;20075;-71
2022/12/24 09:18:41;;;;;;;44.67;6.97;;;9.20;99.90;;;;;;5072009;28;20489;-71
2022/12/24 09:21:13;;;;;;;52.55;8.52;;;9.20;99.90;;;;;;5071792;28;20058;-71
2022/12/24 09:23:39;;;;;;;45.40;7.80;;;9.20;99.90;;;;;;5071751;28;20044;-72
2022/12/24 09:26:13;;;;;;;44.42;8.20;;;9.20;99.90;;;;;;5071645;28;20059;-72
2022/12/24 09:28:39;;;;;;;47.65;7.35;;;9.30;99.90;;;;;;5071984;28;20048;-72
2022/12/24 09:31:05;;;;;;;62.72;9.52;;;9.30;99.90;;;;;;5071751;28;20043;-72
2022/12/24 09:33:33;;;;;;;52.10;8.93;;;9.30;99.90;;;;;;5072886;28;20055;-72
2022/12/24 09:35:59;;;;;;;47.60;8.10;;;9.40;99.90;;;;;;5074621;28;20043;-72
2022/12/24 09:38:25;;;;;;;56.67;8.60;;;9.30;99.90;;;;;;5075636;28;20112;-72
2022/12/24 09:40:53;;;;;;;49.22;8.18;;;9.30;99.90;;;;;;5075546;28;20413;-72
2022/12/24 09:43:25;;;;;;;45.13;8.13;;;9.40;99.90;;;;;;5075956;28;20135;-71
2022/12/24 09:46:02;;;;;;;50.20;7.15;;;9.40;99.90;;;;;;5075369;28;20489;-72
2022/12/24 09:48:31;;;;;;;41.60;6.72;;;9.40;99.90;;;;;;5075360;28;20125;-72
2022/12/24 09:51:08;;;;;;;32.72;6.20;;;9.40;99.90;;;;;;5075340;28;20497;-72
2022/12/24 09:53:50;;;;;;;39.95;6.90;;;9.40;99.90;;;;;;5075417;28;20044;-72
2022/12/24 09:56:20;;;;;;;34.33;5.82;;;9.30;99.90;;;;;;5075305;28;20050;-72
2022/12/24 09:58:50;;;;;;;34.97;6.20;;;9.30;99.90;;;;;;5075290;28;20051;-72
2022/12/24 10:01:17;;;;;;;35.20;5.60;;;9.30;99.90;;;;;;5077011;28;20047;-72
2022/12/24 10:03:43;;;;;;;31.55;5.80;;;9.30;99.90;;;;;;5075212;28;20045;-72
2022/12/24 10:06:16;;;;;;;38.90;5.63;;;9.30;99.90;;;;;;5075603;28;20047;-72
2022/12/24 10:09:01;;;;;;;38.58;5.43;;;9.30;99.90;;;;;;5075394;28;20115;-72
2022/12/24 10:11:42;;;;;;;43.28;6.38;;;9.30;99.90;;;;;;5075072;28;20072;-72
2022/12/24 10:14:13;;;;;;;34.78;5.50;;;9.40;99.90;;;;;;5075210;28;20047;-72
2022/12/24 10:17:09;;;;;;;36.65;5.13;;;9.40;99.90;;;;;;5076356;28;20032;-72
2022/12/24 10:19:45;;;;;;;33.75;5.45;;;9.40;99.90;;;;;;5074874;28;20040;-72
2022/12/24 10:22:26;;;;;;;40.30;5.68;;;9.40;99.90;;;;;;5074835;28;20521;-72
2022/12/24 10:25:13;;;;;;;33.55;5.35;;;9.40;99.90;;;;;;5074887;28;20040;-72
2022/12/24 10:27:39;;;;;;;34.65;5.55;;;9.40;99.90;;;;;;5074679;28;20429;-72
2022/12/24 10:30:15;;;;;;;38.08;5.53;;;9.40;99.90;;;;;;5074672;28;20040;-72
2022/12/24 10:32:41;;;;;;;30.27;5.70;;;9.40;99.90;;;;;;5074851;28;20512;-72
2022/12/24 10:35:13;;;;;;;41.30;6.65;;;9.50;99.90;;;;;;5057836;28;20058;-71
2022/12/24 10:37:41;;;;;;;38.90;6.40;;;9.50;99.90;;;;;;5074572;28;20047;-72
2022/12/24 10:40:22;;;;;;;34.28;5.80;;;9.60;99.90;;;;;;5074497;28;20119;-72
2022/12/24 10:42:47;;;;;;;43.33;6.63;;;9.60;99.90;;;;;;5074478;28;20511;-72
2022/12/24 10:45:16;;;;;;;40.85;6.93;;;9.60;99.90;;;;;;5075595;28;20119;-71
2022/12/24 10:47:44;;;;;;;38.30;6.30;;;9.60;99.90;;;;;;5073014;28;20546;-72
2022/12/24 10:50:19;;;;;;;37.83;6.20;;;9.60;99.90;;;;;;5074394;28;20043;-72
2022/12/24 10:52:46;;;;;;;40.35;6.25;;;9.70;99.90;;;;;;5074331;28;20036;-71
2022/12/24 10:55:18;;;;;;;39.97;6.75;;;9.70;99.90;;;;;;5075647;28;20047;-72
2022/12/24 10:58:00;;;;;;;35.60;5.70;;;9.70;99.90;;;;;;5074173;28;20127;-75
2022/12/24 11:00:26;;;;;;;36.60;6.07;;;9.70;99.90;;;;;;5074204;28;20040;-72
2022/12/24 11:03:19;;;;;;;32.05;6.57;;;9.60;99.90;;;;;;5074365;28;20039;-72
2022/12/24 11:05:48;;;;;;;39.10;5.82;;;9.60;99.90;;;;;;5074334;28;20032;-75
2022/12/24 11:08:16;;;;;;;35.63;5.68;;;9.60;99.90;;;;;;5074269;28;20037;-72
2022/12/24 11:10:53;;;;;;;38.85;5.82;;;9.60;99.90;;;;;;5073835;28;20044;-72
2022/12/24 11:13:26;;;;;;;38.83;6.15;;;9.70;99.90;;;;;;5074207;28;20137;-72
2022/12/24 11:16:13;;;;;;;38.97;6.63;;;9.70;99.90;;;;;;5074110;28;20079;-71
2022/12/24 11:18:46;;;;;;;39.72;6.43;;;9.70;99.90;;;;;;5074134;28;20117;-71
2022/12/24 11:21:23;;;;;;;39.58;7.03;;;9.70;99.90;;;;;;5074000;28;20045;-72
2022/12/24 11:24:04;;;;;;;39.92;6.90;;;9.70;99.90;;;;;;5075068;28;20124;-72
2022/12/24 11:26:30;;;;;;;41.58;8.05;;;9.70;99.90;;;;;;5073716;28;20559;-71
2022/12/24 11:29:18;;;;;;;37.30;6.57;;;9.70;99.90;;;;;;5073896;28;20067;-72
2022/12/24 11:31:45;;;;;;;43.78;6.50;;;9.80;99.90;;;;;;5073501;28;20094;-71
2022/12/24 11:34:27;;;;;;;52.50;8.15;;;9.80;99.90;;;;;;5073485;28;20040;-71
2022/12/24 11:36:55;;;;;;;46.80;7.45;;;9.80;99.90;;;;;;5074915;28;20032;-71
2022/12/24 11:39:24;;;;;;;42.20;6.55;;;9.80;99.90;;;;;;5056949;28;20115;-71
2022/12/24 11:41:52;;;;;;;41.55;6.90;;;9.80;99.90;;;;;;5073566;28;20041;-71
2022/12/24 11:44:27;;;;;;;46.92;7.38;;;9.80;99.90;;;;;;5073512;28;20493;-71
2022/12/24 11:46:57;;;;;;;44.90;7.47;;;9.90;99.90;;;;;;5074417;28;20028;-72
2022/12/24 11:49:27;;;;;;;39.22;7.32;;;9.90;99.90;;;;;;5073321;28;20048;-72
2022/12/24 11:52:11;;;;;;;43.83;8.15;;;9.90;99.90;;;;;;5073026;28;20044;-72
2022/12/24 11:55:14;;;;;;;38.10;6.75;;;9.90;99.90;;;;;;5073045;28;20083;-72
2022/12/24 11:57:58;;;;;;;32.83;5.53;;;9.90;99.90;;;;;;5073033;28;20041;-71
2022/12/24 12:00:25;;;;;;;35.63;5.25;;;9.90;99.90;;;;;;5072994;28;20056;-71
2022/12/24 12:02:55;;;;;;;39.25;5.55;;;10.00;99.90;;;;;;5072852;28;20048;-71
2022/12/24 12:05:27;;;;;;;42.13;6.90;;;10.00;99.90;;;;;;5073637;28;20040;-72
2022/12/24 12:08:00;;;;;;;25.42;5.35;;;9.90;99.90;;;;;;5072935;28;20056;-72
2022/12/24 12:10:35;;;;;;;;;;;9.90;99.90;;;;;;5073189;28;20109;-71
2022/12/24 12:13:05;;;;;;;36.58;5.13;;;9.90;99.90;;;;;;5072724;28;19916;-71
2022/12/24 12:15:43;;;;;;;35.58;6.43;;;9.80;99.90;;;;;;5072993;28;20040;-71
2022/12/24 12:18:14;;;;;;;34.85;5.60;;;9.90;99.90;;;;;;5072783;28;20070;-71
2022/12/24 12:21:05;;;;;;;34.13;5.20;;;9.90;99.90;;;;;;5072825;28;20555;-71
2022/12/24 12:23:41;;;;;;;31.05;6.65;;;9.90;99.90;;;;;;5067457;28;20456;-71
2022/12/24 12:26:14;;;;;;;34.88;5.60;;;9.80;99.90;;;;;;5072576;28;20051;-71
2022/12/24 12:28:49;;;;;;;35.85;5.25;;;9.80;99.90;;;;;;5072878;28;20040;-72
2022/12/24 12:31:34;;;;;;;27.45;5.30;;;9.80;99.90;;;;;;5072371;28;20561;-72
2022/12/24 12:34:22;;;;;;;28.23;4.45;;;9.80;99.90;;;;;;5072480;28;20033;-72
2022/12/24 12:36:49;;;;;;;31.27;5.20;;;9.80;99.90;;;;;;5072509;28;20090;-72
2022/12/24 12:39:16;;;;;;;28.20;4.70;;;9.80;99.90;;;;;;5072274;28;20032;-72
2022/12/24 12:41:52;;;;;;;35.50;4.85;;;9.90;99.90;;;;;;5072227;28;20083;-72
2022/12/24 12:44:44;;;;;;;28.30;4.38;;;9.90;99.90;;;;;;5072248;28;20043;-72
2022/12/24 12:47:44;;;;;;;34.27;5.33;;;9.90;99.90;;;;;;5055710;28;20040;-72
2022/12/24 12:50:43;;;;;;;24.02;4.63;;;9.90;99.90;;;;;;5072278;28;20044;-72
2022/12/24 12:53:20;;;;;;;33.80;5.07;;;9.80;99.90;;;;;;5072242;28;20044;-72
2022/12/24 12:56:09;;;;;;;29.20;4.78;;;9.80;99.90;;;;;;5072136;28;20041;-72
2022/12/24 12:58:45;;;;;;;28.33;4.93;;;9.80;99.90;;;;;;5072330;28;20033;-72
2022/12/24 13:01:17;;;;;;;32.63;4.68;;;9.80;99.90;;;;;;5072109;28;20127;-72
2022/12/24 13:04:13;;;;;;;33.00;5.65;;;9.80;99.90;;;;;;5072244;28;20054;-72
2022/12/24 13:07:01;;;;;;;29.77;5.00;;;9.90;99.90;;;;;;5071890;28;20045;-72
2022/12/24 13:09:52;;;;;;;32.53;4.68;;;9.80;99.90;;;;;;5071507;28;20181;-72